sensor_id;sensor_type;location;lat;lon;timestamp;P1;durP1;ratioP1;P2;durP2;ratioP2
30301;SDS011;17111;52.130;5.028;2024-02-21T00:00:06;14.95;;;9.07;;
30301;SDS011;17111;52.130;5.028;2024-02-21T00:02:33;16.45;;;9.48;;
30301;SDS011;17111;52.130;5.028;2024-02-21T00:05:00;15.90;;;9.85;;
30301;SDS011;17111;52.130;5.028;2024-02-21T00:07:26;15.48;;;9.10;;
30301;SDS011;17111;52.130;5.028;2024-02-21T00:09:53;15.88;;;9.77;;
30301;SDS011;17111;52.130;5.028;2024-02-21T00:12:20;16.77;;;9.18;;
30301;SDS011;17111;52.130;5.028;2024-02-21T00:14:46;16.60;;;8.93;;
30301;SDS011;17111;52.130;5.028;2024-02-21T00:17:13;12.40;;;8.00;;
30301;SDS011;17111;52.130;5.028;2024-02-21T00:19:40;14.18;;;9.38;;
30301;SDS011;17111;52.130;5.028;2024-02-21T00:22:06;14.00;;;8.35;;
30301;SDS011;17111;52.130;5.028;2024-02-21T00:24:34;11.85;;;7.95;;
30301;SDS011;17111;52.130;5.028;2024-02-21T00:27:00;14.18;;;8.05;;
30301;SDS011;17111;52.130;5.028;2024-02-21T00:29:27;13.77;;;7.90;;
30301;SDS011;17111;52.130;5.028;2024-02-21T00:31:54;14.25;;;8.02;;
30301;SDS011;17111;52.130;5.028;2024-02-21T00:34:21;12.48;;;7.85;;
30301;SDS011;17111;52.130;5.028;2024-02-21T00:36:47;19.27;;;8.95;;
30301;SDS011;17111;52.130;5.028;2024-02-21T00:39:14;13.02;;;8.20;;
30301;SDS011;17111;52.130;5.028;2024-02-21T00:41:40;13.80;;;8.25;;
30301;SDS011;17111;52.130;5.028;2024-02-21T00:44:07;12.25;;;7.72;;
30301;SDS011;17111;52.130;5.028;2024-02-21T00:46:34;12.15;;;7.85;;
30301;SDS011;17111;52.130;5.028;2024-02-21T00:49:00;12.40;;;7.65;;
30301;SDS011;17111;52.130;5.028;2024-02-21T00:51:27;14.77;;;7.80;;
30301;SDS011;17111;52.130;5.028;2024-02-21T00:53:54;11.15;;;7.35;;
30301;SDS011;17111;52.130;5.028;2024-02-21T00:56:21;13.52;;;7.45;;
30301;SDS011;17111;52.130;5.028;2024-02-21T00:58:47;12.35;;;7.45;;
30301;SDS011;17111;52.130;5.028;2024-02-21T01:01:20;11.63;;;7.32;;
30301;SDS011;17111;52.130;5.028;2024-02-21T01:03:51;13.98;;;7.72;;
30301;SDS011;17111;52.130;5.028;2024-02-21T01:06:20;10.15;;;6.68;;
30301;SDS011;17111;52.130;5.028;2024-02-21T01:08:47;11.07;;;6.53;;
30301;SDS011;17111;52.130;5.028;2024-02-21T01:11:14;11.55;;;6.30;;
30301;SDS011;17111;52.130;5.028;2024-02-21T01:13:41;11.00;;;6.75;;
30301;SDS011;17111;52.130;5.028;2024-02-21T01:16:08;9.57;;;6.82;;
30301;SDS011;17111;52.130;5.028;2024-02-21T01:18:37;11.13;;;6.60;;
30301;SDS011;17111;52.130;5.028;2024-02-21T01:21:06;8.18;;;6.10;;
30301;SDS011;17111;52.130;5.028;2024-02-21T01:23:34;11.90;;;6.95;;
30301;SDS011;17111;52.130;5.028;2024-02-21T01:26:01;9.90;;;6.07;;
30301;SDS011;17111;52.130;5.028;2024-02-21T01:28:29;11.85;;;6.72;;
30301;SDS011;17111;52.130;5.028;2024-02-21T01:30:57;9.40;;;5.97;;
30301;SDS011;17111;52.130;5.028;2024-02-21T01:33:23;13.60;;;6.63;;
30301;SDS011;17111;52.130;5.028;2024-02-21T01:35:50;12.95;;;6.70;;
30301;SDS011;17111;52.130;5.028;2024-02-21T01:38:17;9.05;;;6.00;;
30301;SDS011;17111;52.130;5.028;2024-02-21T01:40:44;11.30;;;6.00;;
30301;SDS011;17111;52.130;5.028;2024-02-21T01:43:17;7.57;;;5.78;;
30301;SDS011;17111;52.130;5.028;2024-02-21T01:45:47;10.20;;;5.78;;
30301;SDS011;17111;52.130;5.028;2024-02-21T01:48:17;9.35;;;5.32;;
30301;SDS011;17111;52.130;5.028;2024-02-21T01:50:45;7.90;;;5.25;;
30301;SDS011;17111;52.130;5.028;2024-02-21T01:53:13;9.80;;;5.57;;
30301;SDS011;17111;52.130;5.028;2024-02-21T01:55:45;11.82;;;6.07;;
30301;SDS011;17111;52.130;5.028;2024-02-21T01:58:15;8.27;;;5.05;;
30301;SDS011;17111;52.130;5.028;2024-02-21T02:00:43;8.20;;;5.20;;
30301;SDS011;17111;52.130;5.028;2024-02-21T02:03:12;8.00;;;4.88;;
30301;SDS011;17111;52.130;5.028;2024-02-21T02:05:46;9.38;;;5.25;;
30301;SDS011;17111;52.130;5.028;2024-02-21T02:08:17;10.70;;;5.72;;
30301;SDS011;17111;52.130;5.028;2024-02-21T02:10:50;8.23;;;5.40;;
30301;SDS011;17111;52.130;5.028;2024-02-21T02:13:17;8.25;;;5.05;;
30301;SDS011;17111;52.130;5.028;2024-02-21T02:15:44;9.35;;;5.13;;
30301;SDS011;17111;52.130;5.028;2024-02-21T02:18:12;7.13;;;4.60;;
30301;SDS011;17111;52.130;5.028;2024-02-21T02:20:40;7.80;;;4.55;;
30301;SDS011;17111;52.130;5.028;2024-02-21T02:23:11;7.57;;;4.82;;
30301;SDS011;17111;52.130;5.028;2024-02-21T02:25:40;7.03;;;4.60;;
30301;SDS011;17111;52.130;5.028;2024-02-21T02:28:07;6.85;;;4.18;;
30301;SDS011;17111;52.130;5.028;2024-02-21T02:30:37;7.13;;;4.18;;
30301;SDS011;17111;52.130;5.028;2024-02-21T02:33:04;8.68;;;4.85;;
30301;SDS011;17111;52.130;5.028;2024-02-21T02:35:31;5.80;;;3.97;;
30301;SDS011;17111;52.130;5.028;2024-02-21T02:37:58;7.80;;;4.60;;
30301;SDS011;17111;52.130;5.028;2024-02-21T02:40:25;7.07;;;4.28;;
30301;SDS011;17111;52.130;5.028;2024-02-21T02:42:52;8.45;;;4.72;;
30301;SDS011;17111;52.130;5.028;2024-02-21T02:45:21;8.13;;;4.50;;
30301;SDS011;17111;52.130;5.028;2024-02-21T02:47:50;7.25;;;4.10;;
30301;SDS011;17111;52.130;5.028;2024-02-21T02:50:16;6.15;;;4.13;;
30301;SDS011;17111;52.130;5.028;2024-02-21T02:52:43;6.05;;;3.97;;
30301;SDS011;17111;52.130;5.028;2024-02-21T02:55:09;7.85;;;4.25;;
30301;SDS011;17111;52.130;5.028;2024-02-21T02:57:36;6.05;;;3.33;;
30301;SDS011;17111;52.130;5.028;2024-02-21T03:00:03;7.40;;;3.70;;
30301;SDS011;17111;52.130;5.028;2024-02-21T03:02:31;6.80;;;4.15;;
30301;SDS011;17111;52.130;5.028;2024-02-21T03:04:57;6.68;;;3.88;;
30301;SDS011;17111;52.130;5.028;2024-02-21T03:07:25;5.30;;;3.28;;
30301;SDS011;17111;52.130;5.028;2024-02-21T03:09:51;7.50;;;4.10;;
30301;SDS011;17111;52.130;5.028;2024-02-21T03:12:19;6.53;;;3.45;;
30301;SDS011;17111;52.130;5.028;2024-02-21T03:14:50;7.85;;;3.55;;
30301;SDS011;17111;52.130;5.028;2024-02-21T03:17:17;6.32;;;3.80;;
30301;SDS011;17111;52.130;5.028;2024-02-21T03:19:43;7.75;;;4.00;;
30301;SDS011;17111;52.130;5.028;2024-02-21T03:22:10;5.13;;;3.40;;
30301;SDS011;17111;52.130;5.028;2024-02-21T03:24:37;6.85;;;3.90;;
30301;SDS011;17111;52.130;5.028;2024-02-21T03:27:03;5.07;;;3.00;;
30301;SDS011;17111;52.130;5.028;2024-02-21T03:29:30;5.45;;;3.22;;
30301;SDS011;17111;52.130;5.028;2024-02-21T03:31:57;5.00;;;3.13;;
30301;SDS011;17111;52.130;5.028;2024-02-21T03:34:23;6.70;;;3.42;;
30301;SDS011;17111;52.130;5.028;2024-02-21T03:36:50;6.55;;;3.28;;
30301;SDS011;17111;52.130;5.028;2024-02-21T03:39:16;6.22;;;3.25;;
30301;SDS011;17111;52.130;5.028;2024-02-21T03:41:43;5.75;;;3.10;;
30301;SDS011;17111;52.130;5.028;2024-02-21T03:44:10;6.00;;;2.90;;
30301;SDS011;17111;52.130;5.028;2024-02-21T03:46:36;4.65;;;2.75;;
30301;SDS011;17111;52.130;5.028;2024-02-21T03:49:03;5.30;;;2.78;;
30301;SDS011;17111;52.130;5.028;2024-02-21T03:51:29;6.95;;;2.95;;
30301;SDS011;17111;52.130;5.028;2024-02-21T03:53:56;4.18;;;2.97;;
30301;SDS011;17111;52.130;5.028;2024-02-21T03:56:23;6.63;;;3.20;;
30301;SDS011;17111;52.130;5.028;2024-02-21T03:58:49;4.63;;;2.80;;
30301;SDS011;17111;52.130;5.028;2024-02-21T04:01:16;6.57;;;2.92;;
30301;SDS011;17111;52.130;5.028;2024-02-21T04:03:43;5.45;;;3.28;;
30301;SDS011;17111;52.130;5.028;2024-02-21T04:06:10;5.45;;;2.70;;
30301;SDS011;17111;52.130;5.028;2024-02-21T04:08:37;6.93;;;2.80;;
30301;SDS011;17111;52.130;5.028;2024-02-21T04:11:05;6.60;;;3.28;;
30301;SDS011;17111;52.130;5.028;2024-02-21T04:13:32;6.43;;;2.53;;
30301;SDS011;17111;52.130;5.028;2024-02-21T04:15:58;4.75;;;2.65;;
30301;SDS011;17111;52.130;5.028;2024-02-21T04:18:27;6.57;;;3.17;;
30301;SDS011;17111;52.130;5.028;2024-02-21T04:20:53;4.97;;;2.75;;
30301;SDS011;17111;52.130;5.028;2024-02-21T04:23:20;5.68;;;3.10;;
30301;SDS011;17111;52.130;5.028;2024-02-21T04:25:47;5.45;;;2.88;;
30301;SDS011;17111;52.130;5.028;2024-02-21T04:28:13;5.30;;;2.78;;
30301;SDS011;17111;52.130;5.028;2024-02-21T04:30:40;6.28;;;2.92;;
30301;SDS011;17111;52.130;5.028;2024-02-21T04:33:06;4.30;;;2.50;;
30301;SDS011;17111;52.130;5.028;2024-02-21T04:35:33;9.55;;;3.00;;
30301;SDS011;17111;52.130;5.028;2024-02-21T04:38:02;4.70;;;2.50;;
30301;SDS011;17111;52.130;5.028;2024-02-21T04:40:30;5.20;;;2.88;;
30301;SDS011;17111;52.130;5.028;2024-02-21T04:42:57;5.15;;;2.58;;
30301;SDS011;17111;52.130;5.028;2024-02-21T04:45:24;3.75;;;2.53;;
30301;SDS011;17111;52.130;5.028;2024-02-21T04:47:50;5.13;;;2.40;;
30301;SDS011;17111;52.130;5.028;2024-02-21T04:50:17;4.72;;;2.30;;
30301;SDS011;17111;52.130;5.028;2024-02-21T04:52:44;4.75;;;2.78;;
30301;SDS011;17111;52.130;5.028;2024-02-21T04:55:10;5.13;;;2.58;;
30301;SDS011;17111;52.130;5.028;2024-02-21T04:57:37;6.00;;;2.75;;
30301;SDS011;17111;52.130;5.028;2024-02-21T05:00:04;3.92;;;2.30;;
30301;SDS011;17111;52.130;5.028;2024-02-21T05:02:31;3.65;;;2.38;;
30301;SDS011;17111;52.130;5.028;2024-02-21T05:04:58;2.83;;;2.10;;
30301;SDS011;17111;52.130;5.028;2024-02-21T05:07:24;6.90;;;2.60;;
30301;SDS011;17111;52.130;5.028;2024-02-21T05:09:51;5.72;;;2.55;;
30301;SDS011;17111;52.130;5.028;2024-02-21T05:12:19;5.35;;;2.70;;
30301;SDS011;17111;52.130;5.028;2024-02-21T05:14:46;3.80;;;2.35;;
30301;SDS011;17111;52.130;5.028;2024-02-21T05:17:13;4.32;;;2.60;;
30301;SDS011;17111;52.130;5.028;2024-02-21T05:19:41;4.90;;;2.58;;
30301;SDS011;17111;52.130;5.028;2024-02-21T05:22:08;5.00;;;2.75;;
30301;SDS011;17111;52.130;5.028;2024-02-21T05:24:34;5.15;;;2.80;;
30301;SDS011;17111;52.130;5.028;2024-02-21T05:27:02;4.40;;;2.60;;
30301;SDS011;17111;52.130;5.028;2024-02-21T05:29:29;3.63;;;2.17;;
30301;SDS011;17111;52.130;5.028;2024-02-21T05:31:56;4.10;;;2.53;;
30301;SDS011;17111;52.130;5.028;2024-02-21T05:34:24;4.93;;;2.60;;
30301;SDS011;17111;52.130;5.028;2024-02-21T05:36:54;5.97;;;2.40;;
30301;SDS011;17111;52.130;5.028;2024-02-21T05:39:21;4.78;;;2.35;;
30301;SDS011;17111;52.130;5.028;2024-02-21T05:41:49;6.50;;;2.97;;
30301;SDS011;17111;52.130;5.028;2024-02-21T05:44:16;4.05;;;2.53;;
30301;SDS011;17111;52.130;5.028;2024-02-21T05:46:43;6.47;;;3.30;;
30301;SDS011;17111;52.130;5.028;2024-02-21T05:49:10;4.80;;;2.80;;
30301;SDS011;17111;52.130;5.028;2024-02-21T05:51:36;5.82;;;3.38;;
30301;SDS011;17111;52.130;5.028;2024-02-21T05:54:03;6.30;;;3.42;;
30301;SDS011;17111;52.130;5.028;2024-02-21T05:56:30;5.40;;;3.00;;
30301;SDS011;17111;52.130;5.028;2024-02-21T05:58:56;6.57;;;3.08;;
30301;SDS011;17111;52.130;5.028;2024-02-21T06:01:23;5.22;;;3.10;;
30301;SDS011;17111;52.130;5.028;2024-02-21T06:03:50;6.07;;;3.47;;
30301;SDS011;17111;52.130;5.028;2024-02-21T06:06:17;4.82;;;3.42;;
30301;SDS011;17111;52.130;5.028;2024-02-21T06:08:44;6.60;;;3.70;;
30301;SDS011;17111;52.130;5.028;2024-02-21T06:11:10;6.90;;;3.75;;
30301;SDS011;17111;52.130;5.028;2024-02-21T06:13:40;5.57;;;3.05;;
30301;SDS011;17111;52.130;5.028;2024-02-21T06:16:07;5.53;;;3.72;;
30301;SDS011;17111;52.130;5.028;2024-02-21T06:18:35;5.95;;;3.67;;
30301;SDS011;17111;52.130;5.028;2024-02-21T06:21:04;5.85;;;3.45;;
30301;SDS011;17111;52.130;5.028;2024-02-21T06:23:31;7.40;;;3.55;;
30301;SDS011;17111;52.130;5.028;2024-02-21T06:25:57;5.93;;;3.88;;
30301;SDS011;17111;52.130;5.028;2024-02-21T06:28:24;6.05;;;4.03;;
30301;SDS011;17111;52.130;5.028;2024-02-21T06:30:51;7.97;;;3.92;;
30301;SDS011;17111;52.130;5.028;2024-02-21T06:33:17;5.40;;;3.60;;
30301;SDS011;17111;52.130;5.028;2024-02-21T06:35:44;8.63;;;3.83;;
30301;SDS011;17111;52.130;5.028;2024-02-21T06:38:13;8.48;;;4.47;;
30301;SDS011;17111;52.130;5.028;2024-02-21T06:40:42;8.07;;;4.38;;
30301;SDS011;17111;52.130;5.028;2024-02-21T06:43:08;6.55;;;3.97;;
30301;SDS011;17111;52.130;5.028;2024-02-21T06:45:35;6.80;;;4.25;;
30301;SDS011;17111;52.130;5.028;2024-02-21T06:48:02;6.32;;;4.00;;
30301;SDS011;17111;52.130;5.028;2024-02-21T06:50:28;8.73;;;4.28;;
30301;SDS011;17111;52.130;5.028;2024-02-21T06:52:55;6.63;;;4.10;;
30301;SDS011;17111;52.130;5.028;2024-02-21T06:55:22;8.20;;;3.78;;
30301;SDS011;17111;52.130;5.028;2024-02-21T06:57:49;6.90;;;4.40;;
30301;SDS011;17111;52.130;5.028;2024-02-21T07:00:16;5.80;;;4.15;;
30301;SDS011;17111;52.130;5.028;2024-02-21T07:02:43;6.75;;;4.35;;
30301;SDS011;17111;52.130;5.028;2024-02-21T07:05:09;8.98;;;3.85;;
30301;SDS011;17111;52.130;5.028;2024-02-21T07:07:36;8.52;;;4.15;;
30301;SDS011;17111;52.130;5.028;2024-02-21T07:10:03;8.35;;;4.50;;
30301;SDS011;17111;52.130;5.028;2024-02-21T07:12:30;7.32;;;3.67;;
30301;SDS011;17111;52.130;5.028;2024-02-21T07:14:57;7.03;;;4.28;;
30301;SDS011;17111;52.130;5.028;2024-02-21T07:17:24;9.18;;;4.88;;
30301;SDS011;17111;52.130;5.028;2024-02-21T07:19:51;8.02;;;4.85;;
30301;SDS011;17111;52.130;5.028;2024-02-21T07:22:17;8.55;;;4.70;;
30301;SDS011;17111;52.130;5.028;2024-02-21T07:24:44;8.60;;;4.28;;
30301;SDS011;17111;52.130;5.028;2024-02-21T07:27:10;5.72;;;3.95;;
30301;SDS011;17111;52.130;5.028;2024-02-21T07:29:41;7.38;;;4.13;;
30301;SDS011;17111;52.130;5.028;2024-02-21T07:32:08;9.88;;;5.35;;
30301;SDS011;17111;52.130;5.028;2024-02-21T07:34:34;9.10;;;4.40;;
30301;SDS011;17111;52.130;5.028;2024-02-21T07:37:01;9.07;;;4.57;;
30301;SDS011;17111;52.130;5.028;2024-02-21T07:39:28;6.35;;;3.63;;
30301;SDS011;17111;52.130;5.028;2024-02-21T07:41:54;8.30;;;4.28;;
30301;SDS011;17111;52.130;5.028;2024-02-21T07:44:21;8.30;;;4.50;;
30301;SDS011;17111;52.130;5.028;2024-02-21T07:46:47;7.18;;;4.50;;
30301;SDS011;17111;52.130;5.028;2024-02-21T07:49:14;8.95;;;4.32;;
30301;SDS011;17111;52.130;5.028;2024-02-21T07:51:41;7.00;;;4.35;;
30301;SDS011;17111;52.130;5.028;2024-02-21T07:54:08;7.18;;;4.53;;
30301;SDS011;17111;52.130;5.028;2024-02-21T07:56:39;10.05;;;4.78;;
30301;SDS011;17111;52.130;5.028;2024-02-21T07:59:05;8.60;;;5.03;;
30301;SDS011;17111;52.130;5.028;2024-02-21T08:01:32;8.95;;;4.18;;
30301;SDS011;17111;52.130;5.028;2024-02-21T08:03:59;7.82;;;4.43;;
30301;SDS011;17111;52.130;5.028;2024-02-21T08:06:26;7.57;;;4.32;;
30301;SDS011;17111;52.130;5.028;2024-02-21T08:08:52;7.22;;;4.20;;
30301;SDS011;17111;52.130;5.028;2024-02-21T08:11:19;10.35;;;4.78;;
30301;SDS011;17111;52.130;5.028;2024-02-21T08:13:46;7.47;;;4.22;;
30301;SDS011;17111;52.130;5.028;2024-02-21T08:16:12;8.60;;;4.68;;
30301;SDS011;17111;52.130;5.028;2024-02-21T08:18:39;8.35;;;3.97;;
30301;SDS011;17111;52.130;5.028;2024-02-21T08:21:06;9.05;;;4.95;;
30301;SDS011;17111;52.130;5.028;2024-02-21T08:23:33;7.93;;;4.53;;
30301;SDS011;17111;52.130;5.028;2024-02-21T08:26:03;7.10;;;4.30;;
30301;SDS011;17111;52.130;5.028;2024-02-21T08:28:30;8.43;;;4.15;;
30301;SDS011;17111;52.130;5.028;2024-02-21T08:30:57;7.65;;;4.80;;
30301;SDS011;17111;52.130;5.028;2024-02-21T08:33:24;7.68;;;4.40;;
30301;SDS011;17111;52.130;5.028;2024-02-21T08:35:51;8.63;;;4.70;;
30301;SDS011;17111;52.130;5.028;2024-02-21T08:38:18;9.70;;;5.18;;
30301;SDS011;17111;52.130;5.028;2024-02-21T08:40:45;9.00;;;4.57;;
30301;SDS011;17111;52.130;5.028;2024-02-21T08:43:11;8.55;;;4.57;;
30301;SDS011;17111;52.130;5.028;2024-02-21T08:45:38;8.20;;;5.25;;
30301;SDS011;17111;52.130;5.028;2024-02-21T08:48:05;10.63;;;4.75;;
30301;SDS011;17111;52.130;5.028;2024-02-21T08:50:32;10.82;;;5.60;;
30301;SDS011;17111;52.130;5.028;2024-02-21T08:52:58;11.50;;;5.40;;
30301;SDS011;17111;52.130;5.028;2024-02-21T08:55:25;11.60;;;5.43;;
30301;SDS011;17111;52.130;5.028;2024-02-21T08:57:52;8.65;;;5.10;;
30301;SDS011;17111;52.130;5.028;2024-02-21T09:00:19;12.00;;;5.03;;
30301;SDS011;17111;52.130;5.028;2024-02-21T09:02:50;8.13;;;4.47;;
30301;SDS011;17111;52.130;5.028;2024-02-21T09:05:17;9.07;;;5.53;;
30301;SDS011;17111;52.130;5.028;2024-02-21T09:07:44;10.13;;;5.65;;
30301;SDS011;17111;52.130;5.028;2024-02-21T09:10:10;10.80;;;5.60;;
30301;SDS011;17111;52.130;5.028;2024-02-21T09:12:37;9.93;;;5.15;;
30301;SDS011;17111;52.130;5.028;2024-02-21T09:15:03;9.60;;;5.72;;
30301;SDS011;17111;52.130;5.028;2024-02-21T09:17:32;8.45;;;5.07;;
30301;SDS011;17111;52.130;5.028;2024-02-21T09:19:58;10.13;;;5.68;;
30301;SDS011;17111;52.130;5.028;2024-02-21T09:22:29;9.98;;;5.03;;
30301;SDS011;17111;52.130;5.028;2024-02-21T09:24:57;9.35;;;5.25;;
30301;SDS011;17111;52.130;5.028;2024-02-21T09:27:24;10.48;;;5.50;;
30301;SDS011;17111;52.130;5.028;2024-02-21T09:29:50;8.18;;;5.13;;
30301;SDS011;17111;52.130;5.028;2024-02-21T09:32:18;7.18;;;4.80;;
30301;SDS011;17111;52.130;5.028;2024-02-21T09:34:45;11.48;;;5.60;;
30301;SDS011;17111;52.130;5.028;2024-02-21T09:37:12;8.30;;;5.30;;
30301;SDS011;17111;52.130;5.028;2024-02-21T09:39:38;9.05;;;5.03;;
30301;SDS011;17111;52.130;5.028;2024-02-21T09:42:05;9.73;;;5.07;;
30301;SDS011;17111;52.130;5.028;2024-02-21T09:44:38;10.68;;;5.05;;
30301;SDS011;17111;52.130;5.028;2024-02-21T09:47:24;8.50;;;4.88;;
30301;SDS011;17111;52.130;5.028;2024-02-21T09:50:05;8.10;;;5.18;;
30301;SDS011;17111;52.130;5.028;2024-02-21T09:52:33;9.60;;;5.15;;
30301;SDS011;17111;52.130;5.028;2024-02-21T09:55:03;8.05;;;4.75;;
30301;SDS011;17111;52.130;5.028;2024-02-21T09:57:31;9.85;;;5.10;;
30301;SDS011;17111;52.130;5.028;2024-02-21T09:59:58;9.70;;;5.65;;
30301;SDS011;17111;52.130;5.028;2024-02-21T10:02:25;9.40;;;5.10;;
30301;SDS011;17111;52.130;5.028;2024-02-21T10:04:52;8.27;;;4.88;;
30301;SDS011;17111;52.130;5.028;2024-02-21T10:07:18;8.38;;;4.55;;
30301;SDS011;17111;52.130;5.028;2024-02-21T10:09:49;10.32;;;5.15;;
30301;SDS011;17111;52.130;5.028;2024-02-21T10:12:15;7.97;;;4.53;;
30301;SDS011;17111;52.130;5.028;2024-02-21T10:14:45;6.85;;;4.47;;
30301;SDS011;17111;52.130;5.028;2024-02-21T10:17:16;7.10;;;4.63;;
30301;SDS011;17111;52.130;5.028;2024-02-21T10:19:45;7.75;;;4.57;;
30301;SDS011;17111;52.130;5.028;2024-02-21T10:22:13;9.05;;;4.90;;
30301;SDS011;17111;52.130;5.028;2024-02-21T10:24:41;10.15;;;4.45;;
30301;SDS011;17111;52.130;5.028;2024-02-21T10:27:09;8.68;;;4.60;;
30301;SDS011;17111;52.130;5.028;2024-02-21T10:29:38;7.30;;;4.05;;
30301;SDS011;17111;52.130;5.028;2024-02-21T10:34:35;8.77;;;4.90;;
30301;SDS011;17111;52.130;5.028;2024-02-21T10:37:03;7.85;;;4.32;;
30301;SDS011;17111;52.130;5.028;2024-02-21T10:39:34;7.70;;;4.43;;
30301;SDS011;17111;52.130;5.028;2024-02-21T10:42:02;7.47;;;3.97;;
30301;SDS011;17111;52.130;5.028;2024-02-21T10:44:36;7.95;;;4.53;;
30301;SDS011;17111;52.130;5.028;2024-02-21T10:47:06;8.25;;;4.75;;
30301;SDS011;17111;52.130;5.028;2024-02-21T10:49:39;5.95;;;4.30;;
30301;SDS011;17111;52.130;5.028;2024-02-21T10:52:11;8.75;;;4.20;;
30301;SDS011;17111;52.130;5.028;2024-02-21T10:54:56;8.48;;;4.22;;
30301;SDS011;17111;52.130;5.028;2024-02-21T10:57:31;6.57;;;4.47;;
30301;SDS011;17111;52.130;5.028;2024-02-21T10:59:58;7.20;;;4.35;;
30301;SDS011;17111;52.130;5.028;2024-02-21T11:02:26;7.00;;;4.30;;
30301;SDS011;17111;52.130;5.028;2024-02-21T11:04:56;5.43;;;3.45;;
30301;SDS011;17111;52.130;5.028;2024-02-21T11:07:24;7.93;;;4.20;;
30301;SDS011;17111;52.130;5.028;2024-02-21T11:09:51;7.03;;;3.88;;
30301;SDS011;17111;52.130;5.028;2024-02-21T11:12:22;6.85;;;3.70;;
30301;SDS011;17111;52.130;5.028;2024-02-21T11:14:50;6.47;;;3.63;;
30301;SDS011;17111;52.130;5.028;2024-02-21T11:17:19;5.32;;;4.22;;
30301;SDS011;17111;52.130;5.028;2024-02-21T11:19:53;5.65;;;3.72;;
30301;SDS011;17111;52.130;5.028;2024-02-21T11:22:20;9.07;;;4.10;;
30301;SDS011;17111;52.130;5.028;2024-02-21T11:24:49;5.22;;;3.53;;
30301;SDS011;17111;52.130;5.028;2024-02-21T11:27:18;5.97;;;4.00;;
30301;SDS011;17111;52.130;5.028;2024-02-21T11:29:47;8.38;;;4.72;;
30301;SDS011;17111;52.130;5.028;2024-02-21T11:32:18;7.85;;;3.78;;
30301;SDS011;17111;52.130;5.028;2024-02-21T11:35:20;6.85;;;3.85;;
30301;SDS011;17111;52.130;5.028;2024-02-21T11:37:45;5.55;;;3.33;;
30301;SDS011;17111;52.130;5.028;2024-02-21T11:40:12;7.88;;;3.70;;
30301;SDS011;17111;52.130;5.028;2024-02-21T11:42:39;6.68;;;4.00;;
30301;SDS011;17111;52.130;5.028;2024-02-21T11:45:06;5.47;;;3.38;;
30301;SDS011;17111;52.130;5.028;2024-02-21T11:47:35;5.07;;;3.15;;
30301;SDS011;17111;52.130;5.028;2024-02-21T11:50:09;6.63;;;3.63;;
30301;SDS011;17111;52.130;5.028;2024-02-21T11:52:36;5.35;;;3.50;;
30301;SDS011;17111;52.130;5.028;2024-02-21T11:55:03;5.45;;;3.88;;
30301;SDS011;17111;52.130;5.028;2024-02-21T11:57:32;7.38;;;3.88;;
30301;SDS011;17111;52.130;5.028;2024-02-21T11:59:58;5.22;;;3.78;;
30301;SDS011;17111;52.130;5.028;2024-02-21T12:02:29;6.85;;;3.75;;
30301;SDS011;17111;52.130;5.028;2024-02-21T12:04:56;5.20;;;3.67;;
30301;SDS011;17111;52.130;5.028;2024-02-21T12:07:23;5.53;;;3.67;;
30301;SDS011;17111;52.130;5.028;2024-02-21T12:09:51;5.13;;;3.58;;
30301;SDS011;17111;52.130;5.028;2024-02-21T12:12:19;4.35;;;3.22;;
30301;SDS011;17111;52.130;5.028;2024-02-21T12:14:53;6.43;;;3.40;;
30301;SDS011;17111;52.130;5.028;2024-02-21T12:17:26;4.13;;;3.05;;
30301;SDS011;17111;52.130;5.028;2024-02-21T12:19:53;5.10;;;3.47;;
30301;SDS011;17111;52.130;5.028;2024-02-21T12:22:19;6.75;;;3.33;;
30301;SDS011;17111;52.130;5.028;2024-02-21T12:24:46;5.53;;;3.50;;
30301;SDS011;17111;52.130;5.028;2024-02-21T12:27:14;6.07;;;3.05;;
30301;SDS011;17111;52.130;5.028;2024-02-21T12:29:41;6.53;;;3.22;;
30301;SDS011;17111;52.130;5.028;2024-02-21T12:32:07;5.32;;;3.15;;
30301;SDS011;17111;52.130;5.028;2024-02-21T12:34:34;4.28;;;3.33;;
30301;SDS011;17111;52.130;5.028;2024-02-21T12:37:18;4.50;;;2.95;;
30301;SDS011;17111;52.130;5.028;2024-02-21T12:39:47;5.53;;;3.28;;
30301;SDS011;17111;52.130;5.028;2024-02-21T12:42:13;5.07;;;2.70;;
30301;SDS011;17111;52.130;5.028;2024-02-21T12:44:40;4.38;;;2.90;;
30301;SDS011;17111;52.130;5.028;2024-02-21T12:47:06;3.65;;;2.70;;
30301;SDS011;17111;52.130;5.028;2024-02-21T12:49:34;6.35;;;2.92;;
30301;SDS011;17111;52.130;5.028;2024-02-21T12:52:01;6.47;;;3.05;;
30301;SDS011;17111;52.130;5.028;2024-02-21T12:54:29;5.15;;;3.17;;
30301;SDS011;17111;52.130;5.028;2024-02-21T12:56:57;4.53;;;2.83;;
30301;SDS011;17111;52.130;5.028;2024-02-21T12:59:24;5.00;;;3.58;;
30301;SDS011;17111;52.130;5.028;2024-02-21T13:01:52;4.40;;;2.83;;
30301;SDS011;17111;52.130;5.028;2024-02-21T13:04:19;4.25;;;2.72;;
30301;SDS011;17111;52.130;5.028;2024-02-21T13:06:48;5.40;;;3.08;;
30301;SDS011;17111;52.130;5.028;2024-02-21T13:09:15;3.88;;;2.83;;
30301;SDS011;17111;52.130;5.028;2024-02-21T13:11:42;3.88;;;2.78;;
30301;SDS011;17111;52.130;5.028;2024-02-21T13:14:10;4.60;;;2.70;;
30301;SDS011;17111;52.130;5.028;2024-02-21T13:16:38;4.78;;;2.80;;
30301;SDS011;17111;52.130;5.028;2024-02-21T13:19:08;5.00;;;3.20;;
30301;SDS011;17111;52.130;5.028;2024-02-21T13:21:35;5.38;;;3.15;;
30301;SDS011;17111;52.130;5.028;2024-02-21T13:24:02;7.93;;;2.92;;
30301;SDS011;17111;52.130;5.028;2024-02-21T13:26:29;4.18;;;2.63;;
30301;SDS011;17111;52.130;5.028;2024-02-21T13:28:56;4.60;;;2.67;;
30301;SDS011;17111;52.130;5.028;2024-02-21T13:31:23;4.65;;;2.70;;
30301;SDS011;17111;52.130;5.028;2024-02-21T13:33:51;5.32;;;2.92;;
30301;SDS011;17111;52.130;5.028;2024-02-21T13:36:18;3.90;;;2.53;;
30301;SDS011;17111;52.130;5.028;2024-02-21T13:38:45;4.50;;;2.60;;
30301;SDS011;17111;52.130;5.028;2024-02-21T13:41:13;4.43;;;2.50;;
30301;SDS011;17111;52.130;5.028;2024-02-21T13:43:39;5.68;;;2.78;;
30301;SDS011;17111;52.130;5.028;2024-02-21T13:46:06;4.25;;;2.45;;
30301;SDS011;17111;52.130;5.028;2024-02-21T13:48:36;5.30;;;2.55;;
30301;SDS011;17111;52.130;5.028;2024-02-21T13:51:03;4.18;;;3.17;;
30301;SDS011;17111;52.130;5.028;2024-02-21T13:53:30;4.63;;;2.28;;
30301;SDS011;17111;52.130;5.028;2024-02-21T13:55:57;5.05;;;2.83;;
30301;SDS011;17111;52.130;5.028;2024-02-21T13:58:24;4.88;;;2.65;;
30301;SDS011;17111;52.130;5.028;2024-02-21T14:00:52;5.65;;;2.75;;
30301;SDS011;17111;52.130;5.028;2024-02-21T14:03:19;4.78;;;2.25;;
30301;SDS011;17111;52.130;5.028;2024-02-21T14:05:46;5.18;;;2.70;;
30301;SDS011;17111;52.130;5.028;2024-02-21T14:08:14;8.25;;;3.38;;
30301;SDS011;17111;52.130;5.028;2024-02-21T14:10:41;6.55;;;2.45;;
30301;SDS011;17111;52.130;5.028;2024-02-21T14:13:08;5.30;;;3.03;;
30301;SDS011;17111;52.130;5.028;2024-02-21T14:15:35;6.22;;;2.97;;
30301;SDS011;17111;52.130;5.028;2024-02-21T14:18:03;4.25;;;2.63;;
30301;SDS011;17111;52.130;5.028;2024-02-21T14:20:34;4.20;;;2.35;;
30301;SDS011;17111;52.130;5.028;2024-02-21T14:23:01;6.20;;;3.00;;
30301;SDS011;17111;52.130;5.028;2024-02-21T14:25:28;4.05;;;2.38;;
30301;SDS011;17111;52.130;5.028;2024-02-21T14:27:55;5.00;;;2.72;;
30301;SDS011;17111;52.130;5.028;2024-02-21T14:30:21;4.55;;;2.60;;
30301;SDS011;17111;52.130;5.028;2024-02-21T14:32:48;5.00;;;2.70;;
30301;SDS011;17111;52.130;5.028;2024-02-21T14:35:15;7.40;;;2.53;;
30301;SDS011;17111;52.130;5.028;2024-02-21T14:37:42;6.97;;;3.38;;
30301;SDS011;17111;52.130;5.028;2024-02-21T14:40:09;4.15;;;2.90;;
30301;SDS011;17111;52.130;5.028;2024-02-21T14:42:36;5.35;;;2.78;;
30301;SDS011;17111;52.130;5.028;2024-02-21T14:45:03;4.43;;;2.33;;
30301;SDS011;17111;52.130;5.028;2024-02-21T14:47:31;5.63;;;2.65;;
30301;SDS011;17111;52.130;5.028;2024-02-21T14:49:59;4.78;;;2.92;;